Time;durP1;ratioP1;P1;durP2;ratioP2;P2;SDS_P1;SDS_P2;PMS_P1;PMS_P2;Temp;Humidity;BMP_temperature;BMP_pressure;BME280_temperature;BME280_humidity;BME280_pressure;Samples;Min_cycle;Max_cycle;Signal;HPM_P1;HPM_P2
2023/05/09 00:00:19;;;;;;;8.02;5.03;;;16.60;74.60;;;;;;5058393;28;20413;-69
2023/05/09 00:02:46;;;;;;;7.20;4.80;;;16.60;74.10;;;;;;5058006;28;20025;-69
2023/05/09 00:05:13;;;;;;;10.07;5.80;;;16.60;73.90;;;;;;5057964;28;20072;-69
2023/05/09 00:07:39;;;;;;;8.00;4.85;;;16.60;73.80;;;;;;5057939;28;20029;-69
2023/05/09 00:10:06;;;;;;;9.15;5.20;;;16.60;73.60;;;;;;5058444;28;20029;-69
2023/05/09 00:12:32;;;;;;;8.30;5.53;;;16.60;73.40;;;;;;5057977;28;20017;-69
2023/05/09 00:14:58;;;;;;;8.32;5.30;;;16.50;73.30;;;;;;5058361;28;20036;-69
2023/05/09 00:17:24;;;;;;;8.80;5.35;;;16.50;73.20;;;;;;5057168;28;20028;-69
2023/05/09 00:19:51;;;;;;;8.50;5.57;;;16.50;73.20;;;;;;5058308;28;20026;-69
2023/05/09 00:22:20;;;;;;;8.55;5.05;;;16.40;73.20;;;;;;5057874;28;20040;-69
2023/05/09 00:24:47;;;;;;;6.95;4.70;;;16.40;73.10;;;;;;5057592;28;20036;-69
2023/05/09 00:27:13;;;;;;;7.05;4.38;;;16.40;73.10;;;;;;5057628;28;20028;-69
2023/05/09 00:29:39;;;;;;;9.35;5.80;;;16.40;73.20;;;;;;5056537;28;20565;-69
2023/05/09 00:32:05;;;;;;;8.13;5.05;;;16.40;73.20;;;;;;5057485;28;20036;-69
2023/05/09 00:34:32;;;;;;;9.25;4.75;;;16.40;73.40;;;;;;5057435;28;20464;-68
2023/05/09 00:36:58;;;;;;;8.75;4.78;;;16.30;73.30;;;;;;5057675;28;20028;-68
2023/05/09 00:39:24;;;;;;;7.68;4.60;;;16.30;73.20;;;;;;5057372;28;20036;-68
2023/05/09 00:41:51;;;;;;;7.13;4.57;;;16.30;73.10;;;;;;5057235;28;20025;-68
2023/05/09 00:44:17;;;;;;;9.13;5.68;;;16.30;73.00;;;;;;5056331;28;20366;-68
2023/05/09 00:46:43;;;;;;;9.65;5.63;;;16.30;73.10;;;;;;5057737;28;20036;-68
2023/05/09 00:49:11;;;;;;;8.13;4.95;;;16.30;73.00;;;;;;5057387;28;20025;-68
2023/05/09 00:51:39;;;;;;;8.35;5.30;;;16.30;72.90;;;;;;5057112;28;20106;-68
2023/05/09 00:54:05;;;;;;;9.18;5.43;;;16.20;72.80;;;;;;5056778;28;20111;-68
2023/05/09 00:56:31;;;;;;;7.47;4.57;;;16.20;72.80;;;;;;5057317;28;20052;-68
2023/05/09 00:58:57;;;;;;;8.10;5.47;;;16.30;72.70;;;;;;5057555;28;20025;-68
2023/05/09 01:01:23;;;;;;;8.10;4.82;;;16.30;72.40;;;;;;5057182;28;20479;-68
2023/05/09 01:03:50;;;;;;;8.48;5.18;;;16.20;72.30;;;;;;5056852;28;20104;-68
2023/05/09 01:06:21;;;;;;;9.45;5.63;;;16.20;72.20;;;;;;5056271;28;20033;-68
2023/05/09 01:08:50;;;;;;;9.60;5.80;;;16.20;71.30;;;;;;5057067;28;20023;-68
2023/05/09 01:11:33;;;;;;;9.13;5.95;;;16.20;71.40;;;;;;5057291;28;20453;-68
2023/05/09 01:14:19;;;;;;;9.53;5.77;;;16.20;71.30;;;;;;5056989;28;20020;-68
2023/05/09 01:17:12;;;;;;;9.27;6.00;;;16.10;71.40;;;;;;5057208;28;20431;-68
2023/05/09 01:20:09;;;;;;;9.25;5.32;;;16.10;71.30;;;;;;5056967;28;20024;-68
2023/05/09 01:22:38;;;;;;;8.32;5.25;;;16.10;71.30;;;;;;5044454;28;20466;-68
2023/05/09 01:25:25;;;;;;;8.48;5.60;;;16.00;71.40;;;;;;5056847;28;20037;-68
2023/05/09 01:28:13;;;;;;;7.82;5.53;;;16.10;71.50;;;;;;5057036;28;20338;-68
2023/05/09 01:30:44;;;;;;;10.82;6.30;;;16.00;71.30;;;;;;5055724;28;20040;-68
2023/05/09 01:33:15;;;;;;;9.25;5.57;;;16.00;71.40;;;;;;5056007;28;20300;-68
2023/05/09 01:35:45;;;;;;;9.45;6.00;;;16.00;71.50;;;;;;5056301;28;20040;-68
2023/05/09 01:38:18;;;;;;;12.13;6.32;;;15.90;71.50;;;;;;5056574;28;20088;-69
2023/05/09 01:40:48;;;;;;;8.45;5.50;;;15.90;71.50;;;;;;5056587;28;20071;-69
2023/05/09 01:43:17;;;;;;;9.27;5.50;;;15.90;71.50;;;;;;5056448;28;20021;-69
2023/05/09 01:45:45;;;;;;;10.43;5.88;;;15.90;71.50;;;;;;5056095;28;20024;-69
2023/05/09 01:48:13;;;;;;;9.05;6.03;;;15.90;71.50;;;;;;5056323;28;20055;-69
2023/05/09 01:50:40;;;;;;;8.02;5.30;;;15.90;71.50;;;;;;5054985;28;20036;-69
2023/05/09 01:53:09;;;;;;;8.25;5.18;;;15.90;71.50;;;;;;5055945;28;20052;-69
2023/05/09 01:55:36;;;;;;;8.13;5.20;;;15.90;71.50;;;;;;5055795;28;20116;-69
2023/05/09 01:58:04;;;;;;;8.98;5.68;;;15.90;71.50;;;;;;5056108;28;20339;-69
2023/05/09 02:00:32;;;;;;;9.75;5.00;;;15.90;71.50;;;;;;5055876;28;20450;-69
2023/05/09 02:03:00;;;;;;;8.65;5.32;;;15.90;71.50;;;;;;5055742;28;20029;-69
2023/05/09 02:05:28;;;;;;;9.68;5.70;;;15.90;71.60;;;;;;5055773;28;20446;-69
2023/05/09 02:07:57;;;;;;;10.73;5.65;;;15.90;71.60;;;;;;5055764;28;20121;-69
2023/05/09 02:10:25;;;;;;;8.43;5.30;;;15.90;71.70;;;;;;5055595;28;20029;-69
2023/05/09 02:12:52;;;;;;;8.82;5.78;;;15.90;71.70;;;;;;5056112;28;20075;-69
2023/05/09 02:15:18;;;;;;;10.57;6.05;;;15.90;71.70;;;;;;5055870;28;20492;-69
2023/05/09 02:17:44;;;;;;;10.25;5.70;;;15.90;71.80;;;;;;5056077;28;20021;-69
2023/05/09 02:20:10;;;;;;;10.15;6.38;;;15.90;71.80;;;;;;5055526;28;20047;-69
2023/05/09 02:22:38;;;;;;;11.60;6.30;;;15.90;72.00;;;;;;5055396;28;20033;-69
2023/05/09 02:25:06;;;;;;;10.48;6.07;;;15.80;72.00;;;;;;5055696;28;20025;-69
2023/05/09 02:27:37;;;;;;;9.50;5.95;;;15.80;71.90;;;;;;5055350;28;20033;-69
2023/05/09 02:30:07;;;;;;;13.48;5.85;;;15.80;72.00;;;;;;5055586;28;20036;-69
2023/05/09 02:32:35;;;;;;;9.82;5.65;;;15.70;72.00;;;;;;5055367;28;20115;-69
2023/05/09 02:35:03;;;;;;;10.18;5.88;;;15.80;72.00;;;;;;5055301;28;20446;-69
2023/05/09 02:37:29;;;;;;;9.77;5.75;;;15.80;72.00;;;;;;5055229;28;20021;-69
2023/05/09 02:39:56;;;;;;;9.32;5.63;;;15.80;71.90;;;;;;5055467;28;20040;-69
2023/05/09 02:42:27;;;;;;;8.65;5.18;;;15.80;71.90;;;;;;5055157;28;20025;-69
2023/05/09 02:44:53;;;;;;;9.98;5.50;;;15.80;71.90;;;;;;5055447;28;20074;-68
2023/05/09 02:47:20;;;;;;;8.93;6.18;;;15.80;71.80;;;;;;5055705;28;20029;-68
2023/05/09 02:49:46;;;;;;;8.52;5.45;;;15.80;71.90;;;;;;5055265;28;20047;-68
2023/05/09 02:52:13;;;;;;;13.02;6.75;;;15.80;71.80;;;;;;5054995;28;20043;-68
2023/05/09 02:54:39;;;;;;;9.77;5.50;;;15.80;71.90;;;;;;5054819;28;20037;-68
2023/05/09 02:57:05;;;;;;;9.10;6.20;;;15.80;71.80;;;;;;5055083;28;20021;-68
2023/05/09 02:59:32;;;;;;;9.80;6.60;;;15.80;71.80;;;;;;5055260;28;20029;-68
2023/05/09 03:01:58;;;;;;;10.75;6.35;;;15.80;71.80;;;;;;5055189;28;20017;-69
2023/05/09 03:04:27;;;;;;;10.88;6.40;;;15.80;71.90;;;;;;5055265;28;20108;-69
2023/05/09 03:06:53;;;;;;;9.73;6.03;;;15.80;71.80;;;;;;5055226;28;20118;-69
2023/05/09 03:09:19;;;;;;;10.68;6.72;;;15.70;71.80;;;;;;5055127;28;20307;-69
2023/05/09 03:11:45;;;;;;;10.60;6.07;;;15.70;71.90;;;;;;5055452;28;20017;-69
2023/05/09 03:14:12;;;;;;;10.75;6.13;;;15.70;71.90;;;;;;5055419;28;20044;-69
2023/05/09 03:16:38;;;;;;;8.60;5.75;;;15.70;72.00;;;;;;5056418;28;20073;-69
2023/05/09 03:19:04;;;;;;;9.82;6.25;;;15.70;72.00;;;;;;5056819;28;20049;-69
2023/05/09 03:21:30;;;;;;;8.88;5.28;;;15.70;72.00;;;;;;5055989;28;20324;-69
2023/05/09 03:23:56;;;;;;;10.52;5.90;;;15.60;72.00;;;;;;5054699;28;20422;-69
2023/05/09 03:26:22;;;;;;;8.48;5.43;;;15.60;72.00;;;;;;5054820;28;20017;-69
2023/05/09 03:28:48;;;;;;;9.88;5.65;;;15.60;72.00;;;;;;5053774;28;20465;-69
2023/05/09 03:31:15;;;;;;;8.48;5.32;;;15.60;72.10;;;;;;5054660;28;20473;-69
2023/05/09 03:33:41;;;;;;;11.13;6.22;;;15.60;72.10;;;;;;5054923;28;20102;-68
2023/05/09 03:36:07;;;;;;;9.40;5.60;;;15.50;72.10;;;;;;5054723;28;20446;-68
2023/05/09 03:38:33;;;;;;;8.88;5.47;;;15.60;72.20;;;;;;5054604;28;20083;-68
2023/05/09 03:40:59;;;;;;;7.78;5.07;;;15.50;72.10;;;;;;5055191;28;20025;-68
2023/05/09 03:43:25;;;;;;;9.50;5.80;;;15.50;72.20;;;;;;5054577;28;20037;-68
2023/05/09 03:45:51;;;;;;;7.90;5.07;;;15.50;72.30;;;;;;5054869;28;20028;-68
2023/05/09 03:48:17;;;;;;;7.95;5.00;;;15.40;72.30;;;;;;5054639;28;20109;-68
2023/05/09 03:50:44;;;;;;;10.88;5.97;;;15.40;72.40;;;;;;5054768;28;20096;-69
2023/05/09 03:53:09;;;;;;;8.10;4.95;;;15.40;72.50;;;;;;5055948;28;20105;-69
2023/05/09 03:55:35;;;;;;;8.93;5.60;;;15.40;72.60;;;;;;5058162;28;20481;-69
2023/05/09 03:58:03;;;;;;;8.93;5.07;;;15.40;72.70;;;;;;5058734;28;20108;-69
2023/05/09 04:00:29;;;;;;;8.73;5.43;;;15.40;72.80;;;;;;5058443;28;20048;-69
2023/05/09 04:02:55;;;;;;;8.48;5.53;;;15.40;72.80;;;;;;5058570;28;20033;-68
2023/05/09 04:05:21;;;;;;;9.15;5.72;;;15.40;72.90;;;;;;5058326;28;20048;-68
2023/05/09 04:07:47;;;;;;;8.20;5.45;;;15.40;72.90;;;;;;5057440;28;20064;-68
2023/05/09 04:10:13;;;;;;;8.10;4.97;;;15.40;72.90;;;;;;5057224;28;20036;-68
2023/05/09 04:12:39;;;;;;;10.43;5.13;;;15.40;72.90;;;;;;5058143;28;20025;-68
2023/05/09 04:15:06;;;;;;;9.98;5.82;;;15.40;72.90;;;;;;5057854;28;20107;-68
2023/05/09 04:17:32;;;;;;;10.85;5.50;;;15.40;72.80;;;;;;5057840;28;20025;-68
2023/05/09 04:19:58;;;;;;;9.77;6.15;;;15.40;73.00;;;;;;5056819;28;20035;-68
2023/05/09 04:22:24;;;;;;;7.80;5.00;;;15.40;73.10;;;;;;5057689;28;20052;-68
2023/05/09 04:24:50;;;;;;;9.50;5.75;;;15.40;73.20;;;;;;5057706;28;20017;-68
2023/05/09 04:27:16;;;;;;;8.93;5.72;;;15.40;73.30;;;;;;5058174;28;20410;-68
2023/05/09 04:29:42;;;;;;;10.02;5.50;;;15.40;73.40;;;;;;5057538;28;20036;-68
2023/05/09 04:32:08;;;;;;;9.05;5.38;;;15.40;73.40;;;;;;5057933;28;20033;-68
2023/05/09 04:34:34;;;;;;;9.65;5.97;;;15.50;73.40;;;;;;5058017;28;20445;-68
2023/05/09 04:37:00;;;;;;;8.75;5.80;;;15.50;73.40;;;;;;5057477;28;20029;-68
2023/05/09 04:39:26;;;;;;;10.40;6.18;;;15.60;73.40;;;;;;5057940;28;20036;-68
2023/05/09 04:41:52;;;;;;;9.35;6.25;;;15.60;73.30;;;;;;5057285;28;20024;-68
2023/05/09 04:44:17;;;;;;;10.75;6.10;;;15.60;73.20;;;;;;5057311;28;20036;-68
2023/05/09 04:46:43;;;;;;;11.13;6.03;;;15.70;73.30;;;;;;5057866;28;20055;-68
2023/05/09 04:49:10;;;;;;;10.32;6.53;;;15.70;73.30;;;;;;5057099;28;20021;-68
2023/05/09 04:51:36;;;;;;;10.15;6.55;;;15.80;73.00;;;;;;5057236;28;20474;-68
2023/05/09 04:54:02;;;;;;;10.80;5.78;;;15.80;72.90;;;;;;5057099;28;20029;-68
2023/05/09 04:56:28;;;;;;;8.45;5.47;;;15.80;72.90;;;;;;5056849;28;20045;-68
2023/05/09 04:58:54;;;;;;;8.10;5.07;;;15.90;72.80;;;;;;5057333;28;20036;-68
2023/05/09 05:01:20;;;;;;;9.60;5.85;;;15.90;72.70;;;;;;5057241;28;20469;-68
2023/05/09 05:03:46;;;;;;;9.77;5.90;;;16.00;72.50;;;;;;5056867;28;20033;-68
2023/05/09 05:06:12;;;;;;;9.75;5.93;;;16.00;72.50;;;;;;5056924;28;20029;-68
2023/05/09 05:08:38;;;;;;;9.80;6.10;;;16.00;72.50;;;;;;5057203;28;20025;-68
2023/05/09 05:11:04;;;;;;;9.90;6.30;;;16.10;72.50;;;;;;5057061;28;20029;-68
2023/05/09 05:13:30;;;;;;;10.50;5.85;;;16.10;72.70;;;;;;5056692;28;20032;-68
2023/05/09 05:15:57;;;;;;;9.32;5.70;;;16.20;72.50;;;;;;5057825;28;20147;-68
2023/05/09 05:18:23;;;;;;;11.40;6.10;;;16.20;72.50;;;;;;5056939;28;20087;-68
2023/05/09 05:20:49;;;;;;;9.60;5.93;;;16.30;72.70;;;;;;5056929;28;20033;-68
2023/05/09 05:23:15;;;;;;;9.50;6.50;;;16.30;72.70;;;;;;5056578;28;20025;-68
2023/05/09 05:25:41;;;;;;;9.02;5.72;;;16.30;72.40;;;;;;5056838;28;20442;-68
2023/05/09 05:28:07;;;;;;;9.70;5.90;;;16.40;72.50;;;;;;5056683;28;20510;-68
2023/05/09 05:30:32;;;;;;;10.38;6.47;;;16.40;72.30;;;;;;5056417;28;20025;-68
2023/05/09 05:32:58;;;;;;;8.82;5.57;;;16.50;72.10;;;;;;5056373;28;20323;-68
2023/05/09 05:35:27;;;;;;;9.82;6.30;;;16.50;71.50;;;;;;5055750;28;20024;-72
2023/05/09 05:37:53;;;;;;;10.70;6.22;;;16.60;71.30;;;;;;5056572;28;20033;-71
2023/05/09 05:40:19;;;;;;;10.00;6.35;;;16.60;71.10;;;;;;5056206;28;20025;-71
2023/05/09 05:42:45;;;;;;;9.82;6.00;;;16.70;70.90;;;;;;5056909;28;20033;-70
2023/05/09 05:45:11;;;;;;;9.73;5.43;;;16.80;70.70;;;;;;5056453;28;20052;-70
2023/05/09 05:47:37;;;;;;;9.70;5.65;;;16.90;70.50;;;;;;5055210;28;20039;-70
2023/05/09 05:50:10;;;;;;;8.27;5.47;;;16.90;70.40;;;;;;5056234;28;20028;-70
2023/05/09 05:52:40;;;;;;;8.75;5.70;;;17.10;70.20;;;;;;5056266;28;20035;-70
2023/05/09 05:55:07;;;;;;;8.60;5.55;;;17.30;70.10;;;;;;5055920;28;20041;-69
2023/05/09 05:57:34;;;;;;;10.75;5.80;;;17.60;69.60;;;;;;5056186;28;20017;-72
2023/05/09 06:00:00;;;;;;;8.80;5.78;;;18.00;69.00;;;;;;5055182;28;20028;-71
2023/05/09 06:02:27;;;;;;;9.10;5.50;;;18.50;67.90;;;;;;5054980;28;20065;-71
2023/05/09 06:04:53;;;;;;;9.00;5.93;;;19.20;66.90;;;;;;5056026;28;20027;-71
2023/05/09 06:07:19;;;;;;;9.02;5.97;;;20.40;64.90;;;;;;5055764;28;20033;-73
2023/05/09 06:09:45;;;;;;;10.32;5.50;;;21.80;59.60;;;;;;5056155;28;20025;-69
2023/05/09 06:12:15;;;;;;;9.13;5.88;;;23.40;57.80;;;;;;5055658;28;20028;-71
2023/05/09 06:14:41;;;;;;;8.18;5.15;;;25.00;54.20;;;;;;5055541;28;20417;-71
2023/05/09 06:17:07;;;;;;;8.27;5.75;;;26.40;51.70;;;;;;5055103;28;20027;-71
2023/05/09 06:19:33;;;;;;;7.95;5.50;;;26.90;48.50;;;;;;5055530;28;20029;-72
2023/05/09 06:21:59;;;;;;;8.60;5.55;;;26.80;47.00;;;;;;5055428;28;20025;-73
2023/05/09 06:24:25;;;;;;;10.13;6.25;;;26.60;46.60;;;;;;5055353;28;20484;-73
2023/05/09 06:26:51;;;;;;;8.18;6.15;;;26.40;46.90;;;;;;5055372;28;20039;-71
2023/05/09 06:29:17;;;;;;;9.20;6.45;;;26.60;46.60;;;;;;5055841;28;20024;-68
2023/05/09 06:31:43;;;;;;;7.85;5.93;;;27.50;45.40;;;;;;5055619;28;20025;-70
2023/05/09 06:34:10;;;;;;;7.95;5.65;;;28.40;43.10;;;;;;5055260;28;20142;-68
2023/05/09 06:36:35;;;;;;;6.90;4.72;;;29.50;42.00;;;;;;5055810;28;20021;-68
2023/05/09 06:39:02;;;;;;;9.60;6.10;;;30.60;39.80;;;;;;5055777;28;20046;-68
2023/05/09 06:41:31;;;;;;;8.70;6.05;;;31.60;37.40;;;;;;5055757;28;20415;-68
2023/05/09 06:43:57;;;;;;;9.90;5.57;;;32.50;36.30;;;;;;5055107;28;20104;-68
2023/05/09 06:46:23;;;;;;;8.40;5.72;;;33.40;35.10;;;;;;5055159;28;20071;-69
2023/05/09 06:48:49;;;;;;;8.50;5.70;;;34.00;32.80;;;;;;5055627;28;20013;-68
2023/05/09 06:51:15;;;;;;;9.57;5.68;;;34.40;33.00;;;;;;5055552;28;20029;-69
2023/05/09 06:53:41;;;;;;;7.85;5.20;;;34.40;32.40;;;;;;5054956;28;20025;-69
2023/05/09 06:56:08;;;;;;;8.95;5.50;;;33.80;32.50;;;;;;5054742;28;20125;-69
2023/05/09 06:58:35;;;;;;;8.65;5.63;;;32.70;33.50;;;;;;5055001;28;20071;-68
2023/05/09 07:01:01;;;;;;;8.00;5.20;;;31.30;34.70;;;;;;5055184;28;20036;-69
2023/05/09 07:03:27;;;;;;;8.50;5.68;;;30.10;36.70;;;;;;5055097;28;20112;-69
2023/05/09 07:05:57;;;;;;;8.50;5.75;;;29.00;38.10;;;;;;5055464;28;20029;-69
2023/05/09 07:08:25;;;;;;;8.95;5.93;;;28.20;39.50;;;;;;5054876;28;20032;-69
2023/05/09 07:10:51;;;;;;;7.50;5.63;;;27.70;40.80;;;;;;5054782;28;20044;-69
2023/05/09 07:13:17;;;;;;;8.13;5.40;;;27.30;41.80;;;;;;5055343;28;20021;-68
2023/05/09 07:15:44;;;;;;;8.93;6.68;;;26.90;42.40;;;;;;5054843;28;20494;-68
2023/05/09 07:18:10;;;;;;;7.80;5.72;;;26.60;42.40;;;;;;5055361;28;20025;-68
2023/05/09 07:20:36;;;;;;;8.32;6.07;;;26.20;43.10;;;;;;5054799;28;20074;-69
2023/05/09 07:23:03;;;;;;;8.60;5.72;;;25.90;43.40;;;;;;5053714;28;20025;-69
2023/05/09 07:25:29;;;;;;;8.15;5.80;;;25.70;44.20;;;;;;5054811;28;20462;-68
2023/05/09 07:27:55;;;;;;;9.10;6.10;;;25.50;44.90;;;;;;5055801;28;20021;-70
2023/05/09 07:30:22;;;;;;;11.57;5.78;;;25.40;44.90;;;;;;5059162;28;20024;-70
2023/05/09 07:32:48;;;;;;;8.77;5.80;;;25.30;45.30;;;;;;5058725;28;20410;-70
2023/05/09 07:35:14;;;;;;;9.05;5.90;;;25.20;45.30;;;;;;5058576;28;20064;-71
2023/05/09 07:37:40;;;;;;;9.65;6.00;;;24.90;45.00;;;;;;5058547;28;20029;-70
2023/05/09 07:45:00;;;;;;;10.68;6.35;;;24.60;46.20;;;;;;5058520;28;20365;-72
2023/05/09 07:47:25;;;;;;;9.25;5.88;;;24.50;45.80;;;;;;5058763;28;20454;-70
2023/05/09 07:49:51;;;;;;;8.15;5.90;;;24.40;46.40;;;;;;5058766;28;20043;-69
2023/05/09 07:52:17;;;;;;;8.40;5.93;;;24.20;46.10;;;;;;5058713;28;20032;-69
2023/05/09 07:54:44;;;;;;;9.07;5.93;;;24.20;46.50;;;;;;5058138;28;20127;-69
2023/05/09 07:57:10;;;;;;;9.15;6.30;;;24.00;46.30;;;;;;5058216;28;20130;-69
2023/05/09 07:59:36;;;;;;;9.68;6.82;;;23.90;46.20;;;;;;5058190;28;20401;-70
2023/05/09 08:02:02;;;;;;;9.05;6.32;;;23.60;45.20;;;;;;5058257;28;20112;-70
2023/05/09 08:04:27;;;;;;;10.05;6.70;;;23.40;46.50;;;;;;5058051;28;20048;-70
2023/05/09 08:06:53;;;;;;;11.52;5.95;;;23.20;47.00;;;;;;5057994;28;20032;-70
2023/05/09 08:09:20;;;;;;;9.80;5.93;;;23.10;47.50;;;;;;5058404;28;20021;-70
2023/05/09 08:11:46;;;;;;;8.15;5.90;;;23.10;48.00;;;;;;5058150;28;20025;-70
2023/05/09 08:14:12;;;;;;;8.95;6.10;;;23.10;48.40;;;;;;5057633;28;20044;-70
2023/05/09 08:16:38;;;;;;;9.68;6.50;;;22.90;48.50;;;;;;5056490;28;20100;-70
2023/05/09 08:19:04;;;;;;;10.18;6.43;;;22.90;48.10;;;;;;5057851;28;20031;-70
2023/05/09 08:21:30;;;;;;;10.02;5.90;;;22.70;48.90;;;;;;5057743;28;20048;-70
2023/05/09 08:23:56;;;;;;;8.63;6.05;;;22.70;49.50;;;;;;5057635;28;20081;-70
2023/05/09 08:26:22;;;;;;;10.27;7.40;;;22.60;49.70;;;;;;5057644;28;20096;-70
2023/05/09 08:28:48;;;;;;;10.35;6.90;;;22.60;49.30;;;;;;5057862;28;20087;-70
2023/05/09 08:31:14;;;;;;;10.00;6.35;;;22.60;50.20;;;;;;5057781;28;20415;-70
2023/05/09 08:33:40;;;;;;;8.55;6.20;;;22.60;49.90;;;;;;5057526;28;20071;-70
2023/05/09 08:36:06;;;;;;;9.23;5.95;;;22.50;50.40;;;;;;5057990;28;20455;-70
2023/05/09 08:38:32;;;;;;;9.07;6.15;;;22.50;50.80;;;;;;5057285;28;20127;-70
2023/05/09 08:41:02;;;;;;;9.43;6.78;;;22.50;50.60;;;;;;5057415;28;20063;-70
2023/05/09 08:43:28;;;;;;;10.27;6.25;;;22.50;51.20;;;;;;5057486;28;20036;-70
2023/05/09 08:46:00;;;;;;;9.77;6.38;;;22.50;50.40;;;;;;5057226;28;20178;-70
2023/05/09 08:48:27;;;;;;;13.55;6.95;;;22.40;51.00;;;;;;5057475;28;20029;-70
2023/05/09 08:50:55;;;;;;;9.43;6.30;;;22.40;51.90;;;;;;5057143;28;20025;-68
2023/05/09 08:53:21;;;;;;;10.57;7.03;;;22.20;51.70;;;;;;5057349;28;20025;-68
2023/05/09 08:55:51;;;;;;;9.73;6.30;;;22.30;51.80;;;;;;5056781;28;20065;-68
2023/05/09 08:58:19;;;;;;;11.32;7.25;;;22.30;52.10;;;;;;5057029;28;20028;-68
2023/05/09 09:00:46;;;;;;;11.07;6.38;;;22.20;52.20;;;;;;5057021;28;20496;-68
2023/05/09 09:03:11;;;;;;;10.23;7.03;;;22.20;52.20;;;;;;5056905;28;20063;-68
2023/05/09 09:05:41;;;;;;;9.45;6.82;;;22.20;52.40;;;;;;5057395;28;20061;-68
2023/05/09 09:08:08;;;;;;;10.10;7.28;;;22.20;51.90;;;;;;5057232;28;20469;-68
2023/05/09 09:10:38;;;;;;;10.85;7.97;;;22.20;51.90;;;;;;5056907;28;20021;-68
2023/05/09 09:13:05;;;;;;;10.45;7.03;;;22.20;51.90;;;;;;5056730;28;20056;-68
2023/05/09 09:15:35;;;;;;;8.98;6.32;;;22.20;52.00;;;;;;5056626;28;20029;-68
2023/05/09 09:18:11;;;;;;;10.77;6.88;;;22.10;52.90;;;;;;5056871;28;20041;-68
2023/05/09 09:20:42;;;;;;;10.40;7.47;;;22.20;52.40;;;;;;5056541;28;20439;-68
2023/05/09 09:23:11;;;;;;;11.93;6.70;;;22.20;52.40;;;;;;5056696;28;20048;-68
2023/05/09 09:25:37;;;;;;;10.65;7.22;;;22.10;52.70;;;;;;5056635;28;20091;-68
2023/05/09 09:28:04;;;;;;;12.52;7.93;;;22.20;52.70;;;;;;5056368;28;20032;-68
2023/05/09 09:30:30;;;;;;;10.60;7.20;;;22.30;52.90;;;;;;5056185;28;20497;-68
2023/05/09 09:32:58;;;;;;;10.43;7.45;;;22.40;52.10;;;;;;5056242;28;20028;-68
2023/05/09 09:35:24;;;;;;;10.52;6.93;;;22.30;52.10;;;;;;5056509;28;20029;-68
2023/05/09 09:37:57;;;;;;;11.77;7.18;;;22.40;52.30;;;;;;5056170;28;20103;-68
2023/05/09 09:40:23;;;;;;;9.90;6.43;;;22.40;51.70;;;;;;5056172;28;20431;-68
2023/05/09 09:42:51;;;;;;;9.70;6.38;;;22.40;51.60;;;;;;5055991;28;20029;-68
2023/05/09 09:45:18;;;;;;;10.45;7.53;;;22.40;51.00;;;;;;5055970;28;20362;-68
2023/05/09 09:47:46;;;;;;;11.55;7.40;;;22.40;50.30;;;;;;5055932;28;20020;-68
2023/05/09 09:50:24;;;;;;;10.63;6.60;;;22.30;49.50;;;;;;5054259;28;20029;-68
2023/05/09 09:52:51;;;;;;;10.27;7.18;;;22.30;50.90;;;;;;5056078;28;20040;-68
2023/05/09 09:55:18;;;;;;;10.07;6.10;;;22.40;50.60;;;;;;5055649;28;20041;-68
2023/05/09 09:57:46;;;;;;;11.20;7.22;;;22.40;50.00;;;;;;5055779;28;20035;-68
2023/05/09 10:00:40;;;;;;;10.45;6.80;;;22.40;49.90;;;;;;5055677;28;20113;-68
2023/05/09 10:03:14;;;;;;;10.50;7.37;;;22.50;50.20;;;;;;5052700;28;20040;-68
2023/05/09 10:05:40;;;;;;;10.10;7.15;;;22.50;50.30;;;;;;5055936;28;20017;-68
2023/05/09 10:08:08;;;;;;;10.77;7.18;;;22.60;50.10;;;;;;5055677;28;20025;-68
2023/05/09 10:10:35;;;;;;;11.32;8.13;;;22.60;50.30;;;;;;5055474;28;20044;-68
2023/05/09 10:13:06;;;;;;;10.35;7.32;;;22.70;50.00;;;;;;5056032;28;20023;-68
2023/05/09 10:15:33;;;;;;;10.68;7.80;;;22.70;50.20;;;;;;5056264;28;20029;-68
2023/05/09 10:18:03;;;;;;;13.38;8.52;;;22.80;50.50;;;;;;5055821;28;20496;-68
2023/05/09 10:20:30;;;;;;;12.18;8.07;;;22.80;50.80;;;;;;5055671;28;20036;-68
2023/05/09 10:23:02;;;;;;;13.43;7.70;;;22.70;50.90;;;;;;5054393;28;20357;-68
2023/05/09 10:25:41;;;;;;;11.90;7.63;;;22.70;50.50;;;;;;5055378;28;20064;-68
2023/05/09 10:28:11;;;;;;;12.82;8.60;;;22.70;50.50;;;;;;5055711;28;20029;-68
2023/05/09 10:31:13;;;;;;;11.95;7.00;;;22.80;50.30;;;;;;5055253;28;20040;-68
2023/05/09 10:33:47;;;;;;;10.68;7.53;;;22.80;50.50;;;;;;5055566;28;20414;-68
2023/05/09 10:36:19;;;;;;;13.20;8.70;;;22.90;49.60;;;;;;5055290;28;20025;-68
2023/05/09 10:38:52;;;;;;;12.05;8.02;;;22.80;48.80;;;;;;5055253;28;20031;-68
2023/05/09 10:41:20;;;;;;;10.98;7.60;;;22.70;49.80;;;;;;5055542;28;20112;-68
2023/05/09 10:43:47;;;;;;;10.90;7.43;;;22.60;49.10;;;;;;5055299;28;20029;-68
2023/05/09 10:46:14;;;;;;;12.20;7.50;;;22.50;49.80;;;;;;5055146;28;20025;-68
2023/05/09 10:48:41;;;;;;;10.05;6.78;;;22.50;49.70;;;;;;5055655;28;20437;-68
2023/05/09 10:51:08;;;;;;;10.00;6.97;;;22.50;49.90;;;;;;5055072;28;20029;-68
2023/05/09 10:53:44;;;;;;;11.15;6.95;;;22.50;49.20;;;;;;5055034;28;20025;-68
2023/05/09 10:56:29;;;;;;;13.18;8.57;;;22.40;49.40;;;;;;5054273;28;20072;-68
2023/05/09 10:58:56;;;;;;;10.57;7.57;;;22.40;49.80;;;;;;5054402;28;20083;-68
2023/05/09 11:01:33;;;;;;;10.73;7.68;;;22.50;50.60;;;;;;5055731;28;20033;-68
2023/05/09 11:04:00;;;;;;;11.80;7.40;;;22.50;51.00;;;;;;5062127;28;20393;-68
2023/05/09 11:06:49;;;;;;;11.63;6.72;;;22.50;50.30;;;;;;5061578;28;20088;-68
2023/05/09 11:09:27;;;;;;;9.05;6.25;;;22.50;49.50;;;;;;5061773;28;20032;-68
2023/05/09 11:11:55;;;;;;;11.90;6.22;;;22.60;49.50;;;;;;5061779;28;20048;-68
2023/05/09 11:14:31;;;;;;;7.32;5.15;;;22.80;49.50;;;;;;5061792;28;20079;-68
2023/05/09 11:16:59;;;;;;;9.68;7.25;;;22.90;49.70;;;;;;5061808;28;20053;-68
2023/05/09 11:19:56;;;;;;;10.02;7.13;;;23.00;49.40;;;;;;5061532;28;20025;-68
2023/05/09 11:22:31;;;;;;;10.57;7.05;;;23.00;48.60;;;;;;5060431;28;20043;-68
2023/05/09 11:25:08;;;;;;;11.10;7.20;;;22.90;49.30;;;;;;5061463;28;20025;-68
2023/05/09 11:27:43;;;;;;;11.23;8.00;;;22.90;49.30;;;;;;5061758;28;20108;-68
2023/05/09 11:30:14;;;;;;;10.80;7.22;;;22.80;49.30;;;;;;5061314;28;20021;-68
2023/05/09 11:32:52;;;;;;;9.82;6.38;;;22.90;49.10;;;;;;5061600;28;20029;-68
2023/05/09 11:35:20;;;;;;;8.35;5.97;;;22.90;48.90;;;;;;5061708;28;20029;-68
2023/05/09 11:37:51;;;;;;;8.18;5.70;;;22.90;48.60;;;;;;5061357;28;20029;-68
2023/05/09 11:40:18;;;;;;;8.55;5.80;;;22.90;48.00;;;;;;5061329;28;20044;-68
2023/05/09 11:42:47;;;;;;;7.60;5.28;;;22.90;48.00;;;;;;5061215;28;20101;-68
2023/05/09 11:45:14;;;;;;;7.15;4.80;;;22.90;48.00;;;;;;5061241;28;20108;-68
2023/05/09 11:47:40;;;;;;;7.18;5.10;;;22.90;48.40;;;;;;5061236;28;20407;-68
2023/05/09 11:50:11;;;;;;;7.32;5.15;;;23.10;48.30;;;;;;5061189;28;20052;-68
2023/05/09 11:52:38;;;;;;;7.45;5.20;;;23.20;47.60;;;;;;5061760;28;20036;-68
2023/05/09 11:55:12;;;;;;;8.70;5.80;;;23.10;47.50;;;;;;5060829;28;20059;-68
2023/05/09 11:57:47;;;;;;;7.85;5.50;;;23.10;47.70;;;;;;5061509;28;20446;-68
2023/05/09 12:00:23;;;;;;;9.15;6.13;;;23.00;47.80;;;;;;5061439;28;20108;-68
2023/05/09 12:02:51;;;;;;;8.95;5.57;;;23.10;47.50;;;;;;5061617;28;20036;-68
2023/05/09 12:05:19;;;;;;;9.02;5.25;;;23.00;47.60;;;;;;5061025;28;20036;-68
2023/05/09 12:07:46;;;;;;;7.47;4.70;;;22.90;47.70;;;;;;5061007;28;20025;-68
2023/05/09 12:10:14;;;;;;;8.25;5.50;;;22.90;47.90;;;;;;5060905;28;20112;-68
2023/05/09 12:12:45;;;;;;;6.50;4.72;;;23.00;48.10;;;;;;5061117;28;20021;-68
2023/05/09 12:15:15;;;;;;;6.55;4.88;;;23.00;48.20;;;;;;5057090;28;20036;-68
2023/05/09 12:17:43;;;;;;;6.40;4.50;;;23.00;48.50;;;;;;5057683;28;20029;-68
2023/05/09 12:20:09;;;;;;;7.13;4.75;;;23.00;48.50;;;;;;5057732;28;20017;-68
2023/05/09 12:22:38;;;;;;;7.15;5.18;;;23.00;48.70;;;;;;5057931;28;20056;-68
2023/05/09 12:25:08;;;;;;;7.80;5.25;;;23.10;48.70;;;;;;5058193;28;20059;-68
2023/05/09 12:27:35;;;;;;;6.30;4.68;;;23.10;48.40;;;;;;5057603;28;20473;-68
2023/05/09 12:30:07;;;;;;;10.07;6.47;;;23.10;48.70;;;;;;5057535;28;20104;-68
2023/05/09 12:32:35;;;;;;;9.50;5.53;;;23.10;47.80;;;;;;5058064;28;20017;-68
2023/05/09 12:35:02;;;;;;;8.75;5.93;;;22.90;48.20;;;;;;5057785;28;20457;-68
2023/05/09 12:37:31;;;;;;;9.57;5.32;;;22.80;48.60;;;;;;5057450;28;20035;-68
2023/05/09 12:40:14;;;;;;;8.13;4.97;;;22.80;48.90;;;;;;5057682;28;20037;-68
2023/05/09 12:42:43;;;;;;;8.35;5.65;;;22.70;49.10;;;;;;5057531;28;20025;-68
2023/05/09 12:45:10;;;;;;;7.72;5.35;;;22.60;49.60;;;;;;5057607;28;20029;-68
2023/05/09 12:47:44;;;;;;;7.72;5.45;;;22.50;49.70;;;;;;5057272;28;20025;-68
2023/05/09 12:50:11;;;;;;;7.70;5.53;;;22.40;49.40;;;;;;5057154;28;20029;-68
2023/05/09 12:52:41;;;;;;;8.35;5.35;;;22.30;49.90;;;;;;5057255;28;20029;-68